createdAt,value
2022-10-03T00:00:13.848Z,18.80
2022-10-03T00:03:38.018Z,25.23
2022-10-03T00:06:53.579Z,17.43
2022-10-03T00:10:09.294Z,18.43
2022-10-03T00:13:25.472Z,13.07
2022-10-03T00:16:40.319Z,15.33
2022-10-03T00:19:53.056Z,19.97
2022-10-03T00:23:02.425Z,20.27
2022-10-03T00:30:04.272Z,24.67
2022-10-03T00:33:22.545Z,11.70
2022-10-03T00:36:35.020Z,17.43
2022-10-03T00:39:50.838Z,17.73
2022-10-03T00:43:35.106Z,16.90
2022-10-03T00:47:03.379Z,20.57
2022-10-03T00:50:39.495Z,14.93
2022-10-03T00:53:54.436Z,15.50
2022-10-03T00:57:26.334Z,15.37
2022-10-03T01:00:30.875Z,14.20
2022-10-03T01:03:43.621Z,15.67
2022-10-03T01:06:50.026Z,20.03
2022-10-03T01:10:02.999Z,16.97
2022-10-03T01:13:18.968Z,18.37
2022-10-03T01:16:27.934Z,17.00
2022-10-03T01:19:49.369Z,18.60
2022-10-03T01:23:08.956Z,16.80
2022-10-03T01:26:27.545Z,16.03
2022-10-03T01:30:02.487Z,18.40
2022-10-03T01:33:11.243Z,10.23
2022-10-03T01:36:20.237Z,14.80
2022-10-03T01:39:28.570Z,7.90
2022-10-03T01:42:41.779Z,8.90
2022-10-03T01:46:02.245Z,12.83
2022-10-03T01:49:11.928Z,13.07
2022-10-03T01:52:25.271Z,10.40
2022-10-03T01:55:42.572Z,13.23
2022-10-03T01:58:56.683Z,11.00
2022-10-03T02:02:08.537Z,13.03
2022-10-03T02:05:16.088Z,13.37
2022-10-03T02:08:31.810Z,10.50
2022-10-03T02:11:40.256Z,10.80
2022-10-03T02:14:52.627Z,15.37
2022-10-03T02:17:59.034Z,11.80
2022-10-03T02:21:14.264Z,7.03
2022-10-03T02:24:33.425Z,8.77
2022-10-03T02:28:02.066Z,6.80
2022-10-03T02:31:30.154Z,10.17
2022-10-03T02:35:02.560Z,12.63
2022-10-03T02:38:13.889Z,11.33
2022-10-03T02:41:56.364Z,16.13
2022-10-03T02:45:24.936Z,10.57
2022-10-03T02:48:54.551Z,11.30
2022-10-03T02:52:27.853Z,13.63
2022-10-03T02:55:59.052Z,17.17
2022-10-03T02:59:28.809Z,6.97
2022-10-03T03:03:10.866Z,12.13
2022-10-03T03:06:52.743Z,11.90
2022-10-03T03:10:34.242Z,12.00
2022-10-03T03:14:23.644Z,11.83
2022-10-03T03:17:35.992Z,12.63
2022-10-03T03:21:06.561Z,13.10
2022-10-03T03:24:29.627Z,10.57
2022-10-03T03:27:48.818Z,15.47
2022-10-03T03:31:02.305Z,13.10
2022-10-03T03:34:15.658Z,12.67
2022-10-03T03:37:27.616Z,12.47
2022-10-03T03:40:41.420Z,15.33
2022-10-03T03:43:59.380Z,12.90
2022-10-03T03:47:19.363Z,14.30
2022-10-03T03:50:43.395Z,12.27
2022-10-03T03:54:02.294Z,10.47
2022-10-03T03:57:35.692Z,10.13
2022-10-03T04:01:03.447Z,11.30
2022-10-03T04:04:17.558Z,12.87
2022-10-03T04:07:34.704Z,16.70
2022-10-03T04:10:48.585Z,13.60
2022-10-03T04:14:19.477Z,12.40
2022-10-03T04:17:56.176Z,11.27
2022-10-03T04:21:18.800Z,10.07
2022-10-03T04:24:44.983Z,9.67
2022-10-03T04:28:13.689Z,14.00
2022-10-03T04:31:29.298Z,16.90
2022-10-03T04:34:46.964Z,14.77
2022-10-03T04:37:58.388Z,9.37
2022-10-03T04:41:09.258Z,14.17
2022-10-03T04:44:22.269Z,15.30
2022-10-03T04:47:29.735Z,7.70
2022-10-03T04:50:40.085Z,12.63
2022-10-03T04:53:53.794Z,10.93
2022-10-03T04:57:03.042Z,16.50
2022-10-03T05:00:21.867Z,13.93
2022-10-03T05:03:35.270Z,10.90
2022-10-03T05:06:49.606Z,14.43
2022-10-03T05:09:56.367Z,15.43
2022-10-03T05:13:08.631Z,12.03
2022-10-03T05:16:21.888Z,17.80
2022-10-03T05:19:47.247Z,10.33
2022-10-03T05:23:00.339Z,14.67
2022-10-03T05:26:40.210Z,17.87
2022-10-03T05:29:41.489Z,8.30
2022-10-03T05:32:48.686Z,18.30
2022-10-03T05:36:07.656Z,12.13
2022-10-03T05:39:27.810Z,9.97
2022-10-03T05:42:47.562Z,15.80
2022-10-03T05:45:58.568Z,14.57
2022-10-03T05:49:19.403Z,10.23
2022-10-03T05:52:49.396Z,12.67
2022-10-03T05:56:06.422Z,22.57
2022-10-03T05:59:40.978Z,9.20
2022-10-03T06:03:13.457Z,11.37
2022-10-03T06:06:25.932Z,8.83
2022-10-03T06:09:49.208Z,16.03
2022-10-03T06:13:06.982Z,12.07
2022-10-03T06:16:25.562Z,13.10
2022-10-03T06:19:44.352Z,5.77
2022-10-03T06:23:12.941Z,7.33
2022-10-03T06:27:06.076Z,12.60
2022-10-03T06:30:40.282Z,9.57
2022-10-03T06:34:08.229Z,9.40
2022-10-03T06:37:50.864Z,13.27
2022-10-03T06:41:31.923Z,13.07
2022-10-03T06:44:55.234Z,12.80
2022-10-03T06:48:14.691Z,8.77
2022-10-03T06:51:42.782Z,11.60
2022-10-03T06:55:29.885Z,15.57
2022-10-03T06:59:06.012Z,11.53
2022-10-03T07:02:52.971Z,12.80
2022-10-03T07:06:11.636Z,10.37
2022-10-03T07:10:01.030Z,18.97
2022-10-03T07:13:39.483Z,15.90
2022-10-03T07:17:01.358Z,10.70
2022-10-03T07:20:27.382Z,9.90
2022-10-03T07:23:49.996Z,15.73
2022-10-03T07:27:19.649Z,6.43
2022-10-03T07:30:23.466Z,14.03
2022-10-03T07:34:14.656Z,11.40
2022-10-03T07:37:52.049Z,11.03
2022-10-03T07:41:22.356Z,10.47
2022-10-03T07:44:55.948Z,10.70
2022-10-03T07:48:32.133Z,13.47
2022-10-03T07:51:45.161Z,14.27
2022-10-03T07:55:29.238Z,9.77
2022-10-03T07:59:03.682Z,12.93
2022-10-03T08:02:27.729Z,12.50
2022-10-03T08:05:44.169Z,13.63
2022-10-03T08:09:23.708Z,11.17
2022-10-03T08:13:02.422Z,8.57
2022-10-03T08:16:23.338Z,11.70
2022-10-03T08:19:43.783Z,8.00
2022-10-03T08:23:00.605Z,11.33
2022-10-03T08:26:15.181Z,11.93
2022-10-03T08:29:42.791Z,12.83
2022-10-03T08:33:21.586Z,10.23
2022-10-03T08:37:05.645Z,10.93
2022-10-03T08:40:53.608Z,13.90
2022-10-03T08:44:30.733Z,14.37
2022-10-03T08:48:24.995Z,8.07
2022-10-03T08:52:08.679Z,10.87
2022-10-03T08:55:42.815Z,13.63
2022-10-03T08:59:24.403Z,14.90
2022-10-03T09:03:31.519Z,13.00
2022-10-03T09:07:15.888Z,16.57
2022-10-03T09:10:36.769Z,15.57
2022-10-03T09:14:21.720Z,10.87
2022-10-03T09:17:55.730Z,10.93
2022-10-03T09:21:40.493Z,8.53
2022-10-03T09:25:05.800Z,11.13
2022-10-03T09:28:40.842Z,11.30
2022-10-03T09:32:25.577Z,15.43
2022-10-03T09:36:06.029Z,8.97
2022-10-03T09:39:46.407Z,8.90
2022-10-03T09:43:19.454Z,13.00
2022-10-03T09:47:10.131Z,13.40
2022-10-03T09:50:57.986Z,14.60
2022-10-03T09:54:28.089Z,11.67
2022-10-03T09:58:00.557Z,9.10
2022-10-03T10:01:20.643Z,12.37
2022-10-03T10:04:57.538Z,9.63
2022-10-03T10:08:33.352Z,10.53
2022-10-03T10:12:05.429Z,8.10
2022-10-03T10:15:24.048Z,8.20
2022-10-03T10:18:52.472Z,10.70
2022-10-03T10:22:35.485Z,8.30
2022-10-03T10:26:25.306Z,7.57
2022-10-03T10:29:47.011Z,14.50
2022-10-03T10:33:29.840Z,9.77
2022-10-03T10:37:09.028Z,12.13
2022-10-03T10:40:51.443Z,9.47
2022-10-03T10:44:35.984Z,11.40
2022-10-03T10:48:18.986Z,8.37
2022-10-03T10:52:11.812Z,4.50
2022-10-03T10:55:53.954Z,8.70
2022-10-03T10:59:43.278Z,5.63
2022-10-03T11:03:19.576Z,8.37
2022-10-03T11:06:59.117Z,9.67
2022-10-03T11:10:31.729Z,10.77
2022-10-03T11:14:24.393Z,5.60
2022-10-03T11:17:51.729Z,9.37
2022-10-03T11:21:27.417Z,5.73
2022-10-03T11:25:08.544Z,7.87
2022-10-03T11:29:10.024Z,5.00
2022-10-03T11:32:50.171Z,7.63
2022-10-03T11:36:32.697Z,7.10
2022-10-03T11:39:48.052Z,4.73
2022-10-03T11:42:58.082Z,8.10
2022-10-03T11:46:19.442Z,6.87
2022-10-03T11:49:54.817Z,7.47
2022-10-03T11:53:14.820Z,10.77
2022-10-03T11:56:33.505Z,6.37
2022-10-03T11:59:54.491Z,7.40
2022-10-03T12:03:13.752Z,5.80
2022-10-03T12:06:58.253Z,6.00
2022-10-03T12:10:13.223Z,5.77
2022-10-03T12:13:19.331Z,6.47
2022-10-03T12:16:29.666Z,4.90
2022-10-03T12:19:38.549Z,7.37
2022-10-03T12:22:46.681Z,4.43
2022-10-03T12:25:53.326Z,6.73
2022-10-03T12:28:58.548Z,7.70
2022-10-03T12:32:16.930Z,4.47
2022-10-03T12:35:37.440Z,10.10
2022-10-03T12:38:57.219Z,7.87
2022-10-03T12:42:16.923Z,6.07
2022-10-03T12:45:27.607Z,10.83
2022-10-03T12:48:43.012Z,8.50
2022-10-03T12:51:55.127Z,6.03
2022-10-03T12:55:16.641Z,4.77
2022-10-03T12:58:30.990Z,5.43
2022-10-03T13:01:52.400Z,6.30
2022-10-03T13:05:22.957Z,4.73
2022-10-03T13:08:44.492Z,3.33
2022-10-03T13:11:59.197Z,5.17
2022-10-03T13:15:45.481Z,7.00
2022-10-03T13:18:54.190Z,5.07
2022-10-03T13:22:07.168Z,4.50
2022-10-03T13:25:18.480Z,4.77
2022-10-03T13:28:31.090Z,4.17
2022-10-03T13:31:35.809Z,3.90
2022-10-03T13:34:58.058Z,3.73
2022-10-03T13:38:23.761Z,2.67
2022-10-03T13:41:52.343Z,3.63
2022-10-03T13:44:59.397Z,7.40
2022-10-03T13:48:08.451Z,2.73
2022-10-03T13:51:27.188Z,6.47
2022-10-03T13:55:05.948Z,3.60
2022-10-03T13:58:32.600Z,4.87
2022-10-03T14:01:45.645Z,5.67
2022-10-03T14:05:01.776Z,4.10
2022-10-03T14:08:14.277Z,9.10
2022-10-03T14:11:27.027Z,6.67
2022-10-03T14:14:47.038Z,6.67
2022-10-03T14:17:56.861Z,7.27
2022-10-03T14:21:38.386Z,8.90
2022-10-03T14:24:58.686Z,5.70
2022-10-03T14:28:08.209Z,6.70
2022-10-03T14:31:18.339Z,4.20
2022-10-03T14:34:42.249Z,7.03
2022-10-03T14:37:53.555Z,3.37
2022-10-03T14:41:04.965Z,6.87
2022-10-03T14:44:13.595Z,8.17
2022-10-03T14:47:19.590Z,5.73
2022-10-03T14:50:26.189Z,6.93
2022-10-03T14:53:30.733Z,3.57
2022-10-03T14:56:42.884Z,5.87
2022-10-03T14:59:54.281Z,4.47
2022-10-03T15:02:57.127Z,4.20
2022-10-03T15:06:03.524Z,3.93
2022-10-03T15:09:11.077Z,5.63
2022-10-03T15:12:20.638Z,7.47
2022-10-03T15:15:27.575Z,5.60
2022-10-03T15:18:32.719Z,11.17
2022-10-03T15:21:36.624Z,10.57
2022-10-03T15:24:42.138Z,10.43
2022-10-03T15:27:50.366Z,5.87
2022-10-03T15:30:56.021Z,7.57
2022-10-03T15:34:00.631Z,4.00
2022-10-03T15:37:13.736Z,7.80
2022-10-03T15:40:24.785Z,4.67
2022-10-03T15:43:36.898Z,5.10
2022-10-03T15:46:45.156Z,7.77
2022-10-03T15:49:54.512Z,6.13
2022-10-03T15:53:24.264Z,4.40
2022-10-03T15:56:29.725Z,8.27
2022-10-03T15:59:37.524Z,6.37
2022-10-03T16:02:52.714Z,4.87
2022-10-03T16:06:04.044Z,6.40
2022-10-03T16:09:17.102Z,12.80
2022-10-03T16:12:54.709Z,8.77
2022-10-03T16:16:13.655Z,14.30
2022-10-03T16:19:32.653Z,5.60
2022-10-03T16:22:43.670Z,7.90
2022-10-03T16:25:50.230Z,7.20
2022-10-03T16:29:02.602Z,8.63
2022-10-03T16:32:10.522Z,10.07
2022-10-03T16:35:31.300Z,7.17
2022-10-03T16:38:37.855Z,10.80
2022-10-03T16:41:43.965Z,4.10
2022-10-03T16:44:51.876Z,5.77
2022-10-03T16:48:16.970Z,6.33
2022-10-03T16:51:22.816Z,7.40
2022-10-03T16:54:26.704Z,6.77
2022-10-03T16:57:37.049Z,4.83
2022-10-03T17:00:59.588Z,7.37
2022-10-03T17:04:17.263Z,7.40
2022-10-03T17:07:23.641Z,5.90
2022-10-03T17:10:38.042Z,6.43
2022-10-03T17:13:46.834Z,3.57
2022-10-03T17:16:55.625Z,4.07
2022-10-03T17:20:06.961Z,6.50
2022-10-03T17:23:14.189Z,7.00
2022-10-03T17:26:23.352Z,4.10
2022-10-03T17:29:31.960Z,7.83
2022-10-03T17:32:39.962Z,5.07
2022-10-03T17:35:50.484Z,7.03
2022-10-03T17:39:02.361Z,3.23
2022-10-03T17:42:13.205Z,4.43
2022-10-03T17:45:30.593Z,5.90
2022-10-03T17:48:40.314Z,6.20
2022-10-03T17:51:48.072Z,6.10
2022-10-03T17:54:56.648Z,6.60
2022-10-03T17:58:01.701Z,7.07
2022-10-03T18:01:11.454Z,3.90
2022-10-03T18:04:18.605Z,4.07
2022-10-03T18:07:25.949Z,3.27
2022-10-03T18:10:35.228Z,6.73
2022-10-03T18:13:42.293Z,4.70
2022-10-03T18:16:48.450Z,4.77
2022-10-03T18:20:09.134Z,5.30
2022-10-03T18:23:49.833Z,3.60
2022-10-03T18:26:49.736Z,4.77
2022-10-03T18:29:58.285Z,5.40
2022-10-03T18:33:02.721Z,4.97
2022-10-03T18:36:15.923Z,6.50
2022-10-03T18:39:23.876Z,4.37
2022-10-03T18:42:29.640Z,4.93
2022-10-03T18:45:37.974Z,3.40
2022-10-03T18:49:28.146Z,2.90
2022-10-03T18:52:25.399Z,3.03
2022-10-03T18:55:36.343Z,3.20
2022-10-03T18:58:44.049Z,4.50
2022-10-03T19:01:54.263Z,4.57
2022-10-03T19:05:04.056Z,4.97
2022-10-03T19:08:12.399Z,5.33
2022-10-03T19:11:22.874Z,4.73
2022-10-03T19:14:32.400Z,5.00
2022-10-03T19:17:41.045Z,7.93
2022-10-03T19:20:46.527Z,6.40
2022-10-03T19:23:55.077Z,7.00
2022-10-03T19:27:02.271Z,7.03
2022-10-03T19:30:08.645Z,7.50
2022-10-03T19:33:18.219Z,8.57
2022-10-03T19:36:23.634Z,5.50
2022-10-03T19:39:28.818Z,8.07
2022-10-03T19:42:42.353Z,8.73
2022-10-03T19:45:50.311Z,8.60
2022-10-03T19:49:18.330Z,6.07
2022-10-03T19:52:28.678Z,9.93
2022-10-03T19:55:34.489Z,7.77
2022-10-03T19:58:38.681Z,6.10
2022-10-03T20:01:45.853Z,5.00
2022-10-03T20:04:51.277Z,9.70
2022-10-03T20:08:01.379Z,6.40
2022-10-03T20:11:14.145Z,6.77
2022-10-03T20:14:23.577Z,8.13
2022-10-03T20:17:27.260Z,4.23
2022-10-03T20:20:33.626Z,7.53
2022-10-03T20:23:40.732Z,5.13
2022-10-03T20:26:50.131Z,8.70
2022-10-03T20:30:17.897Z,4.87
2022-10-03T20:33:23.256Z,3.67
2022-10-03T20:36:29.476Z,6.60
2022-10-03T20:39:37.367Z,11.17
2022-10-03T20:42:46.465Z,5.33
2022-10-03T20:46:06.044Z,8.13
2022-10-03T20:49:20.764Z,5.67
2022-10-03T20:52:25.498Z,5.30
2022-10-03T20:55:33.237Z,5.97
2022-10-03T20:58:41.189Z,5.17
2022-10-03T21:01:46.961Z,5.27
2022-10-03T21:04:54.991Z,6.77
2022-10-03T21:08:00.298Z,6.93
2022-10-03T21:11:05.634Z,8.97
2022-10-03T21:14:18.008Z,5.90
2022-10-03T21:17:22.623Z,7.50
2022-10-03T21:20:32.144Z,7.30
2022-10-03T21:23:42.273Z,9.03
2022-10-03T21:26:47.518Z,6.30
2022-10-03T21:29:59.485Z,7.80
2022-10-03T21:33:10.898Z,8.53
2022-10-03T21:36:18.868Z,8.07
2022-10-03T21:39:29.312Z,10.63
2022-10-03T21:42:42.073Z,9.83
2022-10-03T21:45:53.491Z,6.80
2022-10-03T21:49:24.429Z,6.40
2022-10-03T21:52:41.813Z,7.10
2022-10-03T21:55:59.294Z,12.37
2022-10-03T21:59:15.738Z,5.03
2022-10-03T22:02:27.996Z,9.60
2022-10-03T22:05:42.366Z,10.70
2022-10-03T22:08:47.315Z,7.77
2022-10-03T22:11:55.905Z,12.60
2022-10-03T22:15:06.057Z,11.13
2022-10-03T22:18:12.368Z,8.57
2022-10-03T22:21:26.833Z,13.80
2022-10-03T22:24:40.400Z,9.23
2022-10-03T22:27:49.406Z,10.03
2022-10-03T22:30:59.184Z,5.93
2022-10-03T22:34:17.648Z,6.80
2022-10-03T22:37:22.749Z,9.43
2022-10-03T22:40:26.992Z,10.93
2022-10-03T22:43:30.556Z,10.47
2022-10-03T22:46:35.457Z,6.93
2022-10-03T22:49:40.673Z,7.30
2022-10-03T22:52:50.723Z,14.27
2022-10-03T22:55:58.362Z,7.00
2022-10-03T22:59:02.365Z,13.50
2022-10-03T23:02:08.540Z,9.40
2022-10-03T23:05:16.473Z,11.00
2022-10-03T23:08:27.039Z,11.23
2022-10-03T23:11:31.902Z,8.50
2022-10-03T23:14:37.566Z,4.93
2022-10-03T23:18:03.917Z,9.50
2022-10-03T23:21:08.714Z,7.20
2022-10-03T23:24:18.115Z,5.67
2022-10-03T23:27:47.557Z,9.83
2022-10-03T23:30:53.200Z,10.13
2022-10-03T23:33:55.944Z,7.43
2022-10-03T23:37:04.925Z,11.10
2022-10-03T23:40:28.541Z,8.97
2022-10-03T23:43:36.980Z,7.97
2022-10-03T23:46:39.898Z,9.77
2022-10-03T23:49:46.922Z,11.87
2022-10-03T23:52:53.494Z,10.80
2022-10-03T23:55:58.895Z,9.07
2022-10-03T23:59:16.937Z,10.53
